createdAt,value
2019-03-12T00:00:08.726Z,50.40
2019-03-12T00:02:42.929Z,50.10
2019-03-12T00:05:16.732Z,49.40
2019-03-12T00:07:50.868Z,49.40
2019-03-12T00:10:24.812Z,49.10
2019-03-12T00:12:58.594Z,49.00
2019-03-12T00:15:32.883Z,48.70
2019-03-12T00:18:06.971Z,49.00
2019-03-12T00:20:40.696Z,49.10
2019-03-12T00:23:14.913Z,48.70
2019-03-12T00:25:48.927Z,48.60
2019-03-12T00:28:23.138Z,48.80
2019-03-12T00:30:57.261Z,48.70
2019-03-12T00:33:31.129Z,48.50
2019-03-12T00:36:05.379Z,48.40
2019-03-12T00:38:38.961Z,48.80
2019-03-12T00:41:13.102Z,49.00
2019-03-12T00:43:47.475Z,49.00
2019-03-12T00:46:21.633Z,48.70
2019-03-12T00:48:54.969Z,48.60
2019-03-12T00:51:28.877Z,49.00
2019-03-12T00:54:02.841Z,48.90
2019-03-12T00:56:36.675Z,49.10
2019-03-12T00:59:09.966Z,49.60
2019-03-12T01:01:44.054Z,49.90
2019-03-12T01:04:17.893Z,49.90
2019-03-12T01:06:51.114Z,49.80
2019-03-12T01:09:25.141Z,50.10
2019-03-12T01:11:59.278Z,50.60
2019-03-12T01:14:33.016Z,50.70
2019-03-12T01:17:07.815Z,50.10
2019-03-12T01:19:41.931Z,50.00
2019-03-12T01:22:15.626Z,49.40
2019-03-12T01:24:49.848Z,49.00
2019-03-12T01:27:23.555Z,48.50
2019-03-12T01:29:56.762Z,47.80
2019-03-12T01:32:30.962Z,47.40
2019-03-12T01:35:04.661Z,46.70
2019-03-12T01:37:38.014Z,47.40
2019-03-12T01:40:12.921Z,47.60
2019-03-12T01:42:46.577Z,47.50
2019-03-12T01:45:20.696Z,47.20
2019-03-12T01:47:54.485Z,47.80
2019-03-12T01:50:28.735Z,47.60
2019-03-12T01:53:02.955Z,47.40
2019-03-12T01:55:37.058Z,47.50
2019-03-12T01:58:10.882Z,47.20
2019-03-12T02:00:44.857Z,46.70
2019-03-12T02:03:18.929Z,46.40
2019-03-12T02:05:53.138Z,46.50
2019-03-12T02:08:26.382Z,46.30
2019-03-12T02:11:00.409Z,46.50
2019-03-12T02:13:34.938Z,46.30
2019-03-12T02:16:09.051Z,46.80
2019-03-12T02:18:43.160Z,47.90
2019-03-12T02:21:17.256Z,47.70
2019-03-12T02:23:51.512Z,47.20
2019-03-12T02:26:25.612Z,47.10
2019-03-12T02:28:59.614Z,48.10
2019-03-12T02:31:33.915Z,48.00
2019-03-12T02:34:08.174Z,48.90
2019-03-12T02:36:42.244Z,48.70
2019-03-12T02:39:16.252Z,48.30
2019-03-12T02:41:50.495Z,47.90
2019-03-12T02:44:24.732Z,47.10
2019-03-12T02:46:58.814Z,47.20
2019-03-12T02:49:32.557Z,46.20
2019-03-12T02:52:06.313Z,47.20
2019-03-12T02:54:39.933Z,46.80
2019-03-12T02:57:14.127Z,46.90
2019-03-12T02:59:47.908Z,47.60
2019-03-12T03:02:22.198Z,47.30
2019-03-12T03:04:55.797Z,47.10
2019-03-12T03:07:53.338Z,47.20
2019-03-12T03:10:27.417Z,47.20
2019-03-12T03:13:00.806Z,47.20
2019-03-12T03:15:44.296Z,47.00
2019-03-12T03:18:18.019Z,47.90
2019-03-12T03:20:51.727Z,48.80
2019-03-12T03:23:25.473Z,49.10
2019-03-12T03:25:59.225Z,49.20
2019-03-12T03:28:33.347Z,49.30
2019-03-12T03:31:07.138Z,48.90
2019-03-12T03:33:41.362Z,48.20
2019-03-12T03:36:15.429Z,47.50
2019-03-12T03:38:48.639Z,47.30
2019-03-12T03:41:22.879Z,47.00
2019-03-12T03:43:57.078Z,47.50
2019-03-12T03:46:30.894Z,47.90
2019-03-12T03:49:04.624Z,48.80
2019-03-12T03:51:37.865Z,49.00
2019-03-12T03:54:11.587Z,49.30
2019-03-12T03:56:45.278Z,48.80
2019-03-12T03:59:19.331Z,48.50
2019-03-12T04:01:53.541Z,48.70
2019-03-12T04:04:27.670Z,49.00
2019-03-12T04:07:01.317Z,48.40
2019-03-12T04:09:35.119Z,48.30
2019-03-12T04:12:09.866Z,47.00
2019-03-12T04:14:44.005Z,47.10
2019-03-12T04:17:18.326Z,46.30
2019-03-12T04:19:51.582Z,45.80
2019-03-12T04:22:25.796Z,45.00
2019-03-12T04:24:59.922Z,44.60
2019-03-12T04:27:34.140Z,45.60
2019-03-12T04:30:08.233Z,46.60
2019-03-12T04:32:41.982Z,46.80
2019-03-12T04:35:17.124Z,46.80
2019-03-12T04:37:53.258Z,46.80
2019-03-12T04:40:29.419Z,46.50
2019-03-12T04:43:03.627Z,45.80
2019-03-12T04:45:37.373Z,45.70
2019-03-12T04:48:11.112Z,46.50
2019-03-12T04:50:45.282Z,48.70
2019-03-12T04:53:19.382Z,49.60
2019-03-12T04:55:53.478Z,48.90
2019-03-12T04:58:28.010Z,48.20
2019-03-12T05:01:01.295Z,48.40
2019-03-12T05:03:35.308Z,50.50
2019-03-12T05:06:09.300Z,51.90
2019-03-12T05:08:43.973Z,52.20
2019-03-12T05:11:18.167Z,52.10
2019-03-12T05:14:41.657Z,52.50
2019-03-12T05:17:34.752Z,51.80
2019-03-12T05:20:09.015Z,51.20
2019-03-12T05:22:41.981Z,51.50
2019-03-12T05:25:14.595Z,52.20
2019-03-12T05:27:47.226Z,53.20
2019-03-12T05:30:20.512Z,54.00
2019-03-12T05:32:54.664Z,54.60
2019-03-12T05:35:27.103Z,53.00
2019-03-12T05:37:59.666Z,52.00
2019-03-12T05:40:32.983Z,51.30
2019-03-12T05:43:05.935Z,50.20
2019-03-12T05:45:38.840Z,50.00
2019-03-12T05:48:11.798Z,50.30
2019-03-12T05:50:44.286Z,50.20
2019-03-12T05:53:16.903Z,50.10
2019-03-12T05:55:49.356Z,49.30
2019-03-12T05:58:22.347Z,49.00
2019-03-12T06:00:55.508Z,49.20
2019-03-12T06:03:29.261Z,49.20
2019-03-12T06:06:02.227Z,50.10
2019-03-12T06:08:34.669Z,50.30
2019-03-12T06:11:06.742Z,49.40
2019-03-12T06:13:39.644Z,48.40
2019-03-12T06:16:12.890Z,48.30
2019-03-12T06:18:45.244Z,49.00
2019-03-12T06:21:18.293Z,49.30
2019-03-12T06:23:51.674Z,49.20
2019-03-12T06:26:24.535Z,48.20
2019-03-12T06:28:56.578Z,47.80
2019-03-12T06:32:02.323Z,47.20
2019-03-12T06:34:45.079Z,46.50
2019-03-12T06:37:28.981Z,46.60
2019-03-12T06:40:30.494Z,46.90
2019-03-12T06:43:12.596Z,46.60
2019-03-12T06:46:07.460Z,46.80
2019-03-12T06:48:54.198Z,47.10
2019-03-12T06:52:03.963Z,47.50
2019-03-12T06:55:01.240Z,48.70
2019-03-12T06:57:56.669Z,48.80
2019-03-12T07:00:52.896Z,48.50
2019-03-12T07:03:43.964Z,47.90
2019-03-12T07:06:39.303Z,47.00
2019-03-12T07:09:26.262Z,47.30
2019-03-12T07:12:07.166Z,47.90
2019-03-12T07:15:02.015Z,47.80
2019-03-12T07:17:55.504Z,47.10
2019-03-12T07:20:45.959Z,47.20
2019-03-12T07:23:28.561Z,48.30
2019-03-12T07:26:24.267Z,47.70
2019-03-12T07:29:10.639Z,48.30
2019-03-12T07:32:40.454Z,48.70
2019-03-12T07:35:24.913Z,49.10
2019-03-12T07:38:07.184Z,48.20
2019-03-12T07:41:05.604Z,47.30
2019-03-12T07:43:46.680Z,46.00
2019-03-12T07:46:50.566Z,45.80
2019-03-12T07:49:42.225Z,46.60
2019-03-12T07:52:37.816Z,46.90
2019-03-12T07:55:38.616Z,46.10
2019-03-12T07:58:42.325Z,46.20
2019-03-12T08:01:39.063Z,45.90
2019-03-12T08:04:18.637Z,46.10
2019-03-12T08:07:13.235Z,46.20
2019-03-12T08:10:22.488Z,46.80
2019-03-12T08:13:26.551Z,47.60
2019-03-12T08:16:13.142Z,47.20
2019-03-12T08:19:15.388Z,46.80
2019-03-12T08:22:01.261Z,46.20
2019-03-12T08:24:56.158Z,45.40
2019-03-12T08:27:48.421Z,45.00
2019-03-12T08:30:43.600Z,44.10
2019-03-12T08:33:49.564Z,44.40
2019-03-12T08:36:36.482Z,46.70
2019-03-12T08:39:14.807Z,48.50
2019-03-12T08:42:04.805Z,46.30
2019-03-12T08:44:55.453Z,45.30
2019-03-12T08:47:51.357Z,46.30
2019-03-12T08:50:45.617Z,46.10
2019-03-12T08:53:35.277Z,46.20
2019-03-12T08:56:35.776Z,47.20
2019-03-12T08:59:43.478Z,46.20
2019-03-12T09:02:27.452Z,46.70
2019-03-12T09:05:26.067Z,47.50
2019-03-12T09:08:17.148Z,48.20
2019-03-12T09:11:03.597Z,48.50
2019-03-12T09:13:54.402Z,47.00
2019-03-12T09:16:39.575Z,47.10
2019-03-12T09:19:28.437Z,49.20
2019-03-12T09:22:21.521Z,48.70
2019-03-12T09:25:31.605Z,47.40
2019-03-12T09:28:42.908Z,46.50
2019-03-12T09:31:45.638Z,45.90
2019-03-12T09:34:38.600Z,45.90
2019-03-12T09:37:41.874Z,46.10
2019-03-12T09:40:42.040Z,45.90
2019-03-12T09:43:27.096Z,45.10
2019-03-12T09:46:26.477Z,46.30
2019-03-12T09:49:22.316Z,45.80
2019-03-12T09:52:21.193Z,45.50
2019-03-12T09:55:05.858Z,45.80
2019-03-12T09:57:51.941Z,45.30
2019-03-12T10:00:54.284Z,44.10
2019-03-12T10:03:57.114Z,43.00
2019-03-12T10:06:48.366Z,42.40
2019-03-12T10:09:40.870Z,41.90
2019-03-12T10:12:31.724Z,42.40
2019-03-12T10:15:43.043Z,42.50
2019-03-12T10:18:35.580Z,42.00
2019-03-12T10:21:38.021Z,40.70
2019-03-12T10:24:29.158Z,41.80
2019-03-12T10:27:40.402Z,43.80
2019-03-12T10:30:40.281Z,45.20
2019-03-12T10:33:28.238Z,44.00
2019-03-12T10:36:26.083Z,43.80
2019-03-12T10:40:15.448Z,42.90
2019-03-12T10:43:38.210Z,41.30
2019-03-12T10:46:43.577Z,40.70
2019-03-12T10:49:18.241Z,41.40
2019-03-12T10:51:54.270Z,40.00
2019-03-12T10:54:29.005Z,40.30
2019-03-12T10:57:03.541Z,41.80
2019-03-12T10:59:38.476Z,42.00
2019-03-12T11:02:14.874Z,41.10
2019-03-12T11:04:50.077Z,40.70
2019-03-12T11:07:25.998Z,39.80
2019-03-12T11:10:00.971Z,38.70
2019-03-12T11:12:34.339Z,38.20
2019-03-12T11:15:08.526Z,38.90
2019-03-12T11:17:49.432Z,40.00
2019-03-12T11:20:16.288Z,39.90
2019-03-12T11:22:49.720Z,39.90
2019-03-12T11:25:27.478Z,39.60
2019-03-12T11:27:57.185Z,39.40
2019-03-12T11:30:31.075Z,40.60
2019-03-12T11:33:06.722Z,41.50
2019-03-12T11:35:40.096Z,42.50
2019-03-12T11:38:13.770Z,43.10
2019-03-12T11:40:47.932Z,42.60
2019-03-12T11:43:22.479Z,41.40
2019-03-12T11:45:56.602Z,39.40
2019-03-12T11:48:29.966Z,37.80
2019-03-12T11:51:02.817Z,36.70
2019-03-12T11:53:36.306Z,36.00
2019-03-12T11:56:10.369Z,35.50
2019-03-12T11:58:44.088Z,36.30
2019-03-12T12:01:17.157Z,37.30
2019-03-12T12:03:51.226Z,38.00
2019-03-12T12:06:25.332Z,38.70
2019-03-12T12:08:58.945Z,38.20
2019-03-12T12:11:32.958Z,37.40
2019-03-12T12:14:07.039Z,36.60
2019-03-12T12:16:41.075Z,36.60
2019-03-12T12:19:15.110Z,37.90
2019-03-12T12:21:49.102Z,39.00
2019-03-12T12:24:22.470Z,38.30
2019-03-12T12:26:56.510Z,37.60
2019-03-12T12:29:30.190Z,35.80
2019-03-12T12:32:02.759Z,35.50
2019-03-12T12:34:35.161Z,36.70
2019-03-12T12:37:08.310Z,36.00
2019-03-12T12:39:41.063Z,35.30
2019-03-12T12:42:14.657Z,36.10
2019-03-12T12:44:48.182Z,36.20
2019-03-12T12:47:22.239Z,35.50
2019-03-12T12:50:05.502Z,34.90
2019-03-12T12:52:39.633Z,34.60
2019-03-12T12:55:13.818Z,34.60
2019-03-12T12:57:48.278Z,34.50
2019-03-12T13:00:24.050Z,33.70
2019-03-12T13:02:59.430Z,34.10
2019-03-12T13:05:33.076Z,35.30
2019-03-12T13:08:07.746Z,35.00
2019-03-12T13:10:42.301Z,34.20
2019-03-12T13:13:17.911Z,35.50
2019-03-12T13:15:51.918Z,35.30
2019-03-12T13:18:25.949Z,35.20
2019-03-12T13:21:01.397Z,35.50
2019-03-12T13:23:37.341Z,34.60
2019-03-12T13:26:11.834Z,33.90
2019-03-12T13:28:46.201Z,34.80
2019-03-12T13:31:20.800Z,35.10
2019-03-12T13:33:53.277Z,35.50
2019-03-12T13:36:29.099Z,35.50
2019-03-12T13:39:07.572Z,34.90
2019-03-12T13:41:42.558Z,34.40
2019-03-12T13:44:18.693Z,33.70
2019-03-12T13:46:52.120Z,34.30
2019-03-12T13:49:26.163Z,34.50
2019-03-12T13:52:01.125Z,33.60
2019-03-12T13:54:35.196Z,31.40
2019-03-12T13:57:11.920Z,30.50
2019-03-12T13:59:46.618Z,30.00
2019-03-12T14:02:22.919Z,29.50
2019-03-12T14:04:57.112Z,29.60
2019-03-12T14:07:29.739Z,29.60
2019-03-12T14:10:03.678Z,29.30
2019-03-12T14:12:37.633Z,28.30
2019-03-12T14:15:13.748Z,28.30
2019-03-12T14:17:46.832Z,28.20
2019-03-12T14:20:52.599Z,27.90
2019-03-12T14:23:38.557Z,28.20
2019-03-12T14:26:11.987Z,27.10
2019-03-12T14:28:44.443Z,27.20
2019-03-12T14:31:17.290Z,26.50
2019-03-12T14:33:51.387Z,25.10
2019-03-12T14:36:23.368Z,24.90
2019-03-12T14:38:55.988Z,25.50
2019-03-12T14:41:29.586Z,26.70
2019-03-12T14:44:03.173Z,27.00
2019-03-12T14:46:36.084Z,26.10
2019-03-12T14:49:10.453Z,25.80
2019-03-12T14:52:08.730Z,26.60
2019-03-12T14:54:42.608Z,26.20
2019-03-12T14:57:16.476Z,26.00
2019-03-12T14:59:49.414Z,26.00
2019-03-12T15:02:22.794Z,26.10
2019-03-12T15:04:55.079Z,26.40
2019-03-12T15:07:27.939Z,27.50
2019-03-12T15:10:00.441Z,28.20
2019-03-12T15:12:32.827Z,28.00
2019-03-12T15:15:06.233Z,28.40
2019-03-12T15:17:38.299Z,27.80
2019-03-12T15:20:11.350Z,27.50
2019-03-12T15:22:43.796Z,27.30
2019-03-12T15:25:16.784Z,27.30
2019-03-12T15:27:49.745Z,27.90
2019-03-12T15:30:22.047Z,28.80
2019-03-12T15:32:55.895Z,29.50
2019-03-12T15:35:30.129Z,30.00
2019-03-12T15:38:03.410Z,30.20
2019-03-12T15:40:37.123Z,31.10
2019-03-12T15:43:11.352Z,31.40
2019-03-12T15:45:45.157Z,31.20
2019-03-12T15:48:21.408Z,31.60
2019-03-12T15:50:54.204Z,31.60
2019-03-12T15:53:28.534Z,31.80
2019-03-12T15:56:02.720Z,32.30
2019-03-12T15:58:36.051Z,32.00
2019-03-12T16:01:10.268Z,31.60
2019-03-12T16:03:44.355Z,31.60
2019-03-12T16:06:18.583Z,31.10
2019-03-12T16:08:51.943Z,30.70
2019-03-12T16:11:25.572Z,30.90
2019-03-12T16:13:59.689Z,31.20
2019-03-12T16:16:33.875Z,30.80
2019-03-12T16:19:07.501Z,30.50
2019-03-12T16:21:41.323Z,30.10
2019-03-12T16:24:15.526Z,30.00
2019-03-12T16:26:50.167Z,30.20
2019-03-12T16:29:24.358Z,30.80
2019-03-12T16:31:58.192Z,31.30
2019-03-12T16:34:31.855Z,31.10
2019-03-12T16:37:05.579Z,31.20
2019-03-12T16:39:40.085Z,31.70
2019-03-12T16:42:14.730Z,31.70
2019-03-12T16:44:48.844Z,31.80
2019-03-12T16:47:22.248Z,32.20
2019-03-12T16:49:55.531Z,32.60
2019-03-12T16:52:28.849Z,32.50
2019-03-12T16:55:02.755Z,32.30
2019-03-12T16:57:39.561Z,32.30
2019-03-12T17:00:14.790Z,32.20
2019-03-12T17:02:48.579Z,32.50
2019-03-12T17:05:26.004Z,32.50
2019-03-12T17:07:58.626Z,32.20
2019-03-12T17:10:32.336Z,32.20
2019-03-12T17:13:06.053Z,33.20
2019-03-12T17:15:40.334Z,32.50
2019-03-12T17:18:13.606Z,33.00
2019-03-12T17:20:48.275Z,34.10
2019-03-12T17:23:21.959Z,33.90
2019-03-12T17:25:56.089Z,33.70
2019-03-12T17:28:29.908Z,33.50
2019-03-12T17:31:03.824Z,33.20
2019-03-12T17:33:37.925Z,33.40
2019-03-12T17:36:12.133Z,33.70
2019-03-12T17:38:47.270Z,33.80
2019-03-12T17:41:21.415Z,33.80
2019-03-12T17:43:57.780Z,33.30
2019-03-12T17:46:31.254Z,33.20
2019-03-12T17:49:05.189Z,33.20
2019-03-12T17:51:39.488Z,32.90
2019-03-12T17:54:11.564Z,32.80
2019-03-12T17:56:44.555Z,32.40
2019-03-12T17:59:17.116Z,32.20
2019-03-12T18:01:49.469Z,32.20
2019-03-12T18:04:22.883Z,33.10
2019-03-12T18:06:55.708Z,33.20
2019-03-12T18:09:29.136Z,33.20
2019-03-12T18:12:02.481Z,33.20
2019-03-12T18:14:34.988Z,33.10
2019-03-12T18:17:08.313Z,33.20
2019-03-12T18:19:41.235Z,33.00
2019-03-12T18:22:15.141Z,32.90
2019-03-12T18:24:48.091Z,32.70
2019-03-12T18:27:21.021Z,33.10
2019-03-12T18:29:54.090Z,33.20
2019-03-12T18:32:26.140Z,33.10
2019-03-12T18:34:58.687Z,32.90
2019-03-12T18:37:31.566Z,32.50
2019-03-12T18:40:04.623Z,32.50
2019-03-12T18:42:37.608Z,32.40
2019-03-12T18:45:13.241Z,32.70
2019-03-12T18:47:45.781Z,32.30
2019-03-12T18:50:20.350Z,32.30
2019-03-12T18:52:53.002Z,32.30
2019-03-12T18:55:56.626Z,32.30
2019-03-12T18:58:29.105Z,32.30
2019-03-12T19:01:04.817Z,32.30
2019-03-12T19:03:38.149Z,31.90
2019-03-12T19:06:11.522Z,32.00
2019-03-12T19:08:48.142Z,31.80
2019-03-12T19:11:18.951Z,31.70
2019-03-12T19:13:50.975Z,31.80
2019-03-12T19:16:24.186Z,32.20
2019-03-12T19:18:59.853Z,32.90
2019-03-12T19:21:33.146Z,31.80
2019-03-12T19:24:09.790Z,32.50
2019-03-12T19:26:42.735Z,32.90
2019-03-12T19:29:15.578Z,32.90
2019-03-12T19:32:06.707Z,32.80
2019-03-12T19:34:41.399Z,33.10
2019-03-12T19:37:14.436Z,33.00
2019-03-12T19:39:48.211Z,33.30
2019-03-12T19:42:21.143Z,33.80
2019-03-12T19:44:53.658Z,33.70
2019-03-12T19:47:26.848Z,34.00
2019-03-12T19:49:59.432Z,33.70
2019-03-12T19:52:32.855Z,34.00
2019-03-12T19:55:05.227Z,34.00
2019-03-12T19:57:38.785Z,33.70
2019-03-12T20:00:15.181Z,33.40
2019-03-12T20:02:49.811Z,33.10
2019-03-12T20:05:22.678Z,33.30
2019-03-12T20:07:55.630Z,33.40
2019-03-12T20:11:30.928Z,33.30
2019-03-12T20:15:13.505Z,33.70
2019-03-12T20:18:51.167Z,33.80
2019-03-12T20:22:22.747Z,33.70
2019-03-12T20:25:49.138Z,33.80
2019-03-12T20:29:20.630Z,33.70
2019-03-12T20:33:16.278Z,33.50
2019-03-12T20:36:49.555Z,34.10
2019-03-12T20:40:38.835Z,33.50
2019-03-12T20:44:15.451Z,33.60
2019-03-12T20:47:45.150Z,33.40
2019-03-12T20:51:43.010Z,33.70
2019-03-12T20:55:10.027Z,34.30
2019-03-12T20:59:10.566Z,34.50
2019-03-12T21:02:50.331Z,34.40
2019-03-12T21:06:42.377Z,34.70
2019-03-12T21:10:16.393Z,34.70
2019-03-12T21:13:51.402Z,34.90
2019-03-12T21:17:49.710Z,34.90
2019-03-12T21:21:17.101Z,34.70
2019-03-12T21:24:59.032Z,34.60
2019-03-12T21:28:42.366Z,34.90
2019-03-12T21:31:15.812Z,35.00
2019-03-12T21:33:48.235Z,35.10
2019-03-12T21:36:21.308Z,34.90
2019-03-12T21:38:54.805Z,34.60
2019-03-12T21:41:26.798Z,34.50
2019-03-12T21:44:01.747Z,34.50
2019-03-12T21:46:35.887Z,35.00
2019-03-12T21:49:09.840Z,35.10
2019-03-12T21:51:43.912Z,35.20
2019-03-12T21:54:17.530Z,35.60
2019-03-12T21:56:51.139Z,35.90
2019-03-12T21:59:24.971Z,36.00
2019-03-12T22:01:59.053Z,36.30
2019-03-12T22:04:32.858Z,36.40
2019-03-12T22:07:07.060Z,36.30
2019-03-12T22:09:41.195Z,36.10
2019-03-12T22:12:15.440Z,36.10
2019-03-12T22:14:49.301Z,36.10
2019-03-12T22:17:23.326Z,36.20
2019-03-12T22:19:57.448Z,36.00
2019-03-12T22:22:47.644Z,36.10
2019-03-12T22:25:22.282Z,36.30
2019-03-12T22:27:56.501Z,35.80
2019-03-12T22:30:29.843Z,35.60
2019-03-12T22:33:03.678Z,35.60
2019-03-12T22:35:37.380Z,35.80
2019-03-12T22:38:10.654Z,35.80
2019-03-12T22:40:44.488Z,35.70
2019-03-12T22:43:18.722Z,35.80
2019-03-12T22:45:52.089Z,35.70
2019-03-12T22:48:26.087Z,35.60
2019-03-12T22:50:59.832Z,35.70
2019-03-12T22:53:34.647Z,36.10
2019-03-12T22:56:08.494Z,36.10
2019-03-12T22:58:42.257Z,36.20
2019-03-12T23:01:16.064Z,36.30
2019-03-12T23:03:50.206Z,36.50
2019-03-12T23:06:23.905Z,36.70
2019-03-12T23:08:58.237Z,37.10
2019-03-12T23:11:31.459Z,37.00
2019-03-12T23:14:04.970Z,36.80
2019-03-12T23:16:38.820Z,36.80
2019-03-12T23:19:12.422Z,37.20
2019-03-12T23:21:45.721Z,37.50
2019-03-12T23:24:18.809Z,37.50
2019-03-12T23:26:52.306Z,37.40
2019-03-12T23:29:26.122Z,37.30
2019-03-12T23:31:58.939Z,37.30
2019-03-12T23:34:33.009Z,37.30
2019-03-12T23:37:06.504Z,37.50
2019-03-12T23:39:40.680Z,37.50
2019-03-12T23:42:15.561Z,37.40
2019-03-12T23:44:49.667Z,37.20
2019-03-12T23:47:22.777Z,37.00
2019-03-12T23:49:56.600Z,37.00
2019-03-12T23:52:31.071Z,37.10
2019-03-12T23:55:05.388Z,37.20
2019-03-12T23:57:38.441Z,37.40
